sensor_id;sensor_type;location;lat;lon;timestamp;P1;P2;P0
75946;PMS5003;64628;50.104;14.614;2024-03-23T00:53:41;28;25;
75946;PMS5003;64628;50.104;14.614;2024-03-23T00:56:07;26;25;
75946;PMS5003;64628;50.104;14.614;2024-03-23T00:58:32;26;21;
75946;PMS5003;64628;50.104;14.614;2024-03-23T01:00:57;22;20;
75946;PMS5003;64628;50.104;14.614;2024-03-23T01:03:23;25;24;
75946;PMS5003;64628;50.104;14.614;2024-03-23T01:05:49;28;26;
75946;PMS5003;64628;50.104;14.614;2024-03-23T01:08:14;20;20;
75946;PMS5003;64628;50.104;14.614;2024-03-23T01:10:40;22;19;
75946;PMS5003;64628;50.104;14.614;2024-03-23T01:13:05;24;20;
75946;PMS5003;64628;50.104;14.614;2024-03-23T01:15:30;29;24;
75946;PMS5003;64628;50.104;14.614;2024-03-23T01:17:55;36;30;
75946;PMS5003;64628;50.104;14.614;2024-03-23T01:20:21;22;21;
75946;PMS5003;64628;50.104;14.614;2024-03-23T01:22:46;26;21;
75946;PMS5003;64628;50.104;14.614;2024-03-23T01:25:16;28;25;
75946;PMS5003;64628;50.104;14.614;2024-03-23T01:27:36;33;30;
75946;PMS5003;64628;50.104;14.614;2024-03-23T01:30:02;28;25;
75946;PMS5003;64628;50.104;14.614;2024-03-23T01:32:27;28;24;
75946;PMS5003;64628;50.104;14.614;2024-03-23T01:34:52;20;18;
75946;PMS5003;64628;50.104;14.614;2024-03-23T01:37:18;26;25;
75946;PMS5003;64628;50.104;14.614;2024-03-23T01:39:43;25;20;
75946;PMS5003;64628;50.104;14.614;2024-03-23T01:42:09;28;22;
75946;PMS5003;64628;50.104;14.614;2024-03-23T01:44:34;23;22;
75946;PMS5003;64628;50.104;14.614;2024-03-23T01:46:59;28;22;
75946;PMS5003;64628;50.104;14.614;2024-03-23T01:49:24;25;20;
75946;PMS5003;64628;50.104;14.614;2024-03-23T01:51:50;20;19;
75946;PMS5003;64628;50.104;14.614;2024-03-23T01:54:15;28;25;
75946;PMS5003;64628;50.104;14.614;2024-03-23T01:56:41;29;26;
75946;PMS5003;64628;50.104;14.614;2024-03-23T01:59:06;24;20;
75946;PMS5003;64628;50.104;14.614;2024-03-23T02:01:32;26;20;
75946;PMS5003;64628;50.104;14.614;2024-03-23T02:03:57;25;21;
75946;PMS5003;64628;50.104;14.614;2024-03-23T02:06:22;19;19;
75946;PMS5003;64628;50.104;14.614;2024-03-23T02:08:48;21;19;
75946;PMS5003;64628;50.104;14.614;2024-03-23T02:11:14;20;18;
75946;PMS5003;64628;50.104;14.614;2024-03-23T02:13:39;31;25;
75946;PMS5003;64628;50.104;14.614;2024-03-23T02:16:04;21;18;
75946;PMS5003;64628;50.104;14.614;2024-03-23T02:18:29;22;22;
75946;PMS5003;64628;50.104;14.614;2024-03-23T02:20:55;22;22;
75946;PMS5003;64628;50.104;14.614;2024-03-23T02:23:21;25;21;
75946;PMS5003;64628;50.104;14.614;2024-03-23T02:25:46;24;24;
75946;PMS5003;64628;50.104;14.614;2024-03-23T02:28:12;28;25;
75946;PMS5003;64628;50.104;14.614;2024-03-23T02:30:37;18;17;
75946;PMS5003;64628;50.104;14.614;2024-03-23T02:33:02;21;20;
75946;PMS5003;64628;50.104;14.614;2024-03-23T02:35:28;21;20;
75946;PMS5003;64628;50.104;14.614;2024-03-23T02:37:53;33;25;
75946;PMS5003;64628;50.104;14.614;2024-03-23T02:40:19;20;20;
75946;PMS5003;64628;50.104;14.614;2024-03-23T02:42:44;31;24;
75946;PMS5003;64628;50.104;14.614;2024-03-23T02:45:09;22;18;
75946;PMS5003;64628;50.104;14.614;2024-03-23T02:47:34;25;21;
75946;PMS5003;64628;50.104;14.614;2024-03-23T02:50:00;21;18;
75946;PMS5003;64628;50.104;14.614;2024-03-23T02:52:25;27;26;
75946;PMS5003;64628;50.104;14.614;2024-03-23T02:54:51;29;25;
75946;PMS5003;64628;50.104;14.614;2024-03-23T02:57:16;32;29;
75946;PMS5003;64628;50.104;14.614;2024-03-23T02:59:41;28;20;
75946;PMS5003;64628;50.104;14.614;2024-03-23T03:02:06;25;23;
75946;PMS5003;64628;50.104;14.614;2024-03-23T03:04:32;29;29;
75946;PMS5003;64628;50.104;14.614;2024-03-23T03:06:58;27;26;
75946;PMS5003;64628;50.104;14.614;2024-03-23T03:09:23;33;26;
75946;PMS5003;64628;50.104;14.614;2024-03-23T03:11:48;24;23;
75946;PMS5003;64628;50.104;14.614;2024-03-23T03:14:14;24;24;
75946;PMS5003;64628;50.104;14.614;2024-03-23T03:16:39;31;29;
75946;PMS5003;64628;50.104;14.614;2024-03-23T03:19:04;22;20;
75946;PMS5003;64628;50.104;14.614;2024-03-23T03:21:30;26;25;
75946;PMS5003;64628;50.104;14.614;2024-03-23T03:23:55;22;22;
75946;PMS5003;64628;50.104;14.614;2024-03-23T03:26:20;28;22;
75946;PMS5003;64628;50.104;14.614;2024-03-23T03:28:45;26;21;
75946;PMS5003;64628;50.104;14.614;2024-03-23T03:31:11;24;22;
75946;PMS5003;64628;50.104;14.614;2024-03-23T03:33:36;26;18;
75946;PMS5003;64628;50.104;14.614;2024-03-23T03:36:01;24;22;
75946;PMS5003;64628;50.104;14.614;2024-03-23T03:38:27;27;22;
75946;PMS5003;64628;50.104;14.614;2024-03-23T03:40:52;29;29;
75946;PMS5003;64628;50.104;14.614;2024-03-23T03:43:18;24;22;
75946;PMS5003;64628;50.104;14.614;2024-03-23T03:48:09;30;28;
75946;PMS5003;64628;50.104;14.614;2024-03-23T03:50:35;20;20;
75946;PMS5003;64628;50.104;14.614;2024-03-23T03:53:00;25;20;
75946;PMS5003;64628;50.104;14.614;2024-03-23T03:55:25;36;30;
75946;PMS5003;64628;50.104;14.614;2024-03-23T03:57:51;31;28;
75946;PMS5003;64628;50.104;14.614;2024-03-23T04:00:17;30;28;
75946;PMS5003;64628;50.104;14.614;2024-03-23T04:02:42;35;35;
75946;PMS5003;64628;50.104;14.614;2024-03-23T04:05:07;34;33;
75946;PMS5003;64628;50.104;14.614;2024-03-23T04:07:33;29;28;
75946;PMS5003;64628;50.104;14.614;2024-03-23T04:09:58;35;33;
75946;PMS5003;64628;50.104;14.614;2024-03-23T04:12:23;30;27;
75946;PMS5003;64628;50.104;14.614;2024-03-23T04:14:49;44;38;
75946;PMS5003;64628;50.104;14.614;2024-03-23T04:17:14;47;42;
75946;PMS5003;64628;50.104;14.614;2024-03-23T04:19:39;37;33;
75946;PMS5003;64628;50.104;14.614;2024-03-23T04:22:05;41;40;
75946;PMS5003;64628;50.104;14.614;2024-03-23T04:24:30;40;32;
75946;PMS5003;64628;50.104;14.614;2024-03-23T04:26:56;33;28;
75946;PMS5003;64628;50.104;14.614;2024-03-23T04:29:21;50;47;
75946;PMS5003;64628;50.104;14.614;2024-03-23T04:31:46;35;32;
75946;PMS5003;64628;50.104;14.614;2024-03-23T04:34:12;41;34;
75946;PMS5003;64628;50.104;14.614;2024-03-23T04:36:37;33;28;
75946;PMS5003;64628;50.104;14.614;2024-03-23T04:39:02;37;36;
75946;PMS5003;64628;50.104;14.614;2024-03-23T04:41:28;34;27;
75946;PMS5003;64628;50.104;14.614;2024-03-23T04:43:53;43;41;
75946;PMS5003;64628;50.104;14.614;2024-03-23T04:46:18;169;168;
75946;PMS5003;64628;50.104;14.614;2024-03-23T04:48:44;184;181;
75946;PMS5003;64628;50.104;14.614;2024-03-23T04:51:09;35;34;
75946;PMS5003;64628;50.104;14.614;2024-03-23T04:53:35;42;38;
75946;PMS5003;64628;50.104;14.614;2024-03-23T04:56:01;29;28;
75946;PMS5003;64628;50.104;14.614;2024-03-23T04:58:26;65;59;
75946;PMS5003;64628;50.104;14.614;2024-03-23T05:00:54;28;24;
75946;PMS5003;64628;50.104;14.614;2024-03-23T05:03:16;54;49;
75946;PMS5003;64628;50.104;14.614;2024-03-23T05:05:42;39;37;
75946;PMS5003;64628;50.104;14.614;2024-03-23T05:08:07;31;27;
75946;PMS5003;64628;50.104;14.614;2024-03-23T05:10:33;62;62;
75946;PMS5003;64628;50.104;14.614;2024-03-23T05:12:58;149;146;
75946;PMS5003;64628;50.104;14.614;2024-03-23T05:15:24;88;82;
75946;PMS5003;64628;50.104;14.614;2024-03-23T05:17:50;71;68;
75946;PMS5003;64628;50.104;14.614;2024-03-23T05:20:15;34;29;
75946;PMS5003;64628;50.104;14.614;2024-03-23T05:22:40;43;34;
75946;PMS5003;64628;50.104;14.614;2024-03-23T05:25:06;42;39;
75946;PMS5003;64628;50.104;14.614;2024-03-23T05:27:32;31;28;
75946;PMS5003;64628;50.104;14.614;2024-03-23T05:29:57;32;29;
75946;PMS5003;64628;50.104;14.614;2024-03-23T05:32:22;31;28;
75946;PMS5003;64628;50.104;14.614;2024-03-23T05:34:47;34;30;
75946;PMS5003;64628;50.104;14.614;2024-03-23T05:37:13;26;23;
75946;PMS5003;64628;50.104;14.614;2024-03-23T05:39:38;24;24;
75946;PMS5003;64628;50.104;14.614;2024-03-23T05:42:04;31;23;
75946;PMS5003;64628;50.104;14.614;2024-03-23T05:44:29;31;25;
75946;PMS5003;64628;50.104;14.614;2024-03-23T05:46:54;24;22;
75946;PMS5003;64628;50.104;14.614;2024-03-23T05:49:19;27;24;
75946;PMS5003;64628;50.104;14.614;2024-03-23T05:51:44;27;22;
75946;PMS5003;64628;50.104;14.614;2024-03-23T05:54:10;32;29;
75946;PMS5003;64628;50.104;14.614;2024-03-23T05:56:36;33;29;
75946;PMS5003;64628;50.104;14.614;2024-03-23T05:59:01;26;21;
75946;PMS5003;64628;50.104;14.614;2024-03-23T06:01:27;24;22;
75946;PMS5003;64628;50.104;14.614;2024-03-23T06:03:52;27;21;
75946;PMS5003;64628;50.104;14.614;2024-03-23T06:06:17;26;26;
75946;PMS5003;64628;50.104;14.614;2024-03-23T06:08:42;25;25;
75946;PMS5003;64628;50.104;14.614;2024-03-23T06:11:08;39;27;
75946;PMS5003;64628;50.104;14.614;2024-03-23T06:13:35;31;25;
75946;PMS5003;64628;50.104;14.614;2024-03-23T06:15:59;27;25;
75946;PMS5003;64628;50.104;14.614;2024-03-23T06:18:24;34;30;
75946;PMS5003;64628;50.104;14.614;2024-03-23T06:20:50;25;25;
75946;PMS5003;64628;50.104;14.614;2024-03-23T06:23:15;22;22;
75946;PMS5003;64628;50.104;14.614;2024-03-23T06:25:41;29;27;
75946;PMS5003;64628;50.104;14.614;2024-03-23T06:28:06;31;29;
75946;PMS5003;64628;50.104;14.614;2024-03-23T06:30:31;34;32;
75946;PMS5003;64628;50.104;14.614;2024-03-23T06:32:57;26;24;
75946;PMS5003;64628;50.104;14.614;2024-03-23T06:35:22;27;25;
75946;PMS5003;64628;50.104;14.614;2024-03-23T06:37:47;22;19;
75946;PMS5003;64628;50.104;14.614;2024-03-23T06:40:13;27;27;
75946;PMS5003;64628;50.104;14.614;2024-03-23T06:42:38;28;25;
75946;PMS5003;64628;50.104;14.614;2024-03-23T06:45:03;24;22;
75946;PMS5003;64628;50.104;14.614;2024-03-23T06:47:29;27;22;
75946;PMS5003;64628;50.104;14.614;2024-03-23T06:49:54;27;21;
75946;PMS5003;64628;50.104;14.614;2024-03-23T06:52:19;22;22;
75946;PMS5003;64628;50.104;14.614;2024-03-23T06:54:45;26;24;
75946;PMS5003;64628;50.104;14.614;2024-03-23T06:57:11;41;37;
75946;PMS5003;64628;50.104;14.614;2024-03-23T06:59:36;32;24;
75946;PMS5003;64628;50.104;14.614;2024-03-23T07:02:01;30;29;
75946;PMS5003;64628;50.104;14.614;2024-03-23T07:04:27;55;44;
75946;PMS5003;64628;50.104;14.614;2024-03-23T07:06:52;25;24;
75946;PMS5003;64628;50.104;14.614;2024-03-23T07:09:17;30;27;
75946;PMS5003;64628;50.104;14.614;2024-03-23T07:11:43;25;23;
75946;PMS5003;64628;50.104;14.614;2024-03-23T07:14:08;27;24;
75946;PMS5003;64628;50.104;14.614;2024-03-23T07:16:33;26;26;
75946;PMS5003;64628;50.104;14.614;2024-03-23T07:18:59;24;22;
75946;PMS5003;64628;50.104;14.614;2024-03-23T07:21:24;17;17;
75946;PMS5003;64628;50.104;14.614;2024-03-23T07:23:49;19;17;
75946;PMS5003;64628;50.104;14.614;2024-03-23T07:26:14;27;23;
75946;PMS5003;64628;50.104;14.614;2024-03-23T07:28:40;29;27;
75946;PMS5003;64628;50.104;14.614;2024-03-23T07:31:06;32;28;
75946;PMS5003;64628;50.104;14.614;2024-03-23T07:33:32;19;18;
75946;PMS5003;64628;50.104;14.614;2024-03-23T07:35:56;25;23;
75946;PMS5003;64628;50.104;14.614;2024-03-23T07:38:21;21;18;
75946;PMS5003;64628;50.104;14.614;2024-03-23T07:40:47;21;19;
75946;PMS5003;64628;50.104;14.614;2024-03-23T07:43:12;26;20;
75946;PMS5003;64628;50.104;14.614;2024-03-23T07:45:37;19;19;
75946;PMS5003;64628;50.104;14.614;2024-03-23T07:48:03;20;17;
75946;PMS5003;64628;50.104;14.614;2024-03-23T07:50:28;20;19;
75946;PMS5003;64628;50.104;14.614;2024-03-23T07:52:53;22;18;
75946;PMS5003;64628;50.104;14.614;2024-03-23T07:55:19;20;19;
75946;PMS5003;64628;50.104;14.614;2024-03-23T07:57:44;22;20;
75946;PMS5003;64628;50.104;14.614;2024-03-23T08:00:10;19;19;
75946;PMS5003;64628;50.104;14.614;2024-03-23T08:02:35;17;17;
75946;PMS5003;64628;50.104;14.614;2024-03-23T08:05:00;19;19;
75946;PMS5003;64628;50.104;14.614;2024-03-23T08:07:25;21;20;
75946;PMS5003;64628;50.104;14.614;2024-03-23T08:09:51;21;20;
75946;PMS5003;64628;50.104;14.614;2024-03-23T08:12:16;18;16;
75946;PMS5003;64628;50.104;14.614;2024-03-23T08:14:41;23;20;
75946;PMS5003;64628;50.104;14.614;2024-03-23T08:17:06;19;16;
75946;PMS5003;64628;50.104;14.614;2024-03-23T08:19:32;16;15;
75946;PMS5003;64628;50.104;14.614;2024-03-23T08:21:57;24;18;
75946;PMS5003;64628;50.104;14.614;2024-03-23T08:24:22;18;17;
75946;PMS5003;64628;50.104;14.614;2024-03-23T08:26:48;17;17;
75946;PMS5003;64628;50.104;14.614;2024-03-23T08:29:13;16;14;
75946;PMS5003;64628;50.104;14.614;2024-03-23T08:31:38;13;13;
75946;PMS5003;64628;50.104;14.614;2024-03-23T08:34:04;20;17;
75946;PMS5003;64628;50.104;14.614;2024-03-23T08:36:30;17;14;
75946;PMS5003;64628;50.104;14.614;2024-03-23T08:38:55;13;11;
75946;PMS5003;64628;50.104;14.614;2024-03-23T08:41:21;16;15;
75946;PMS5003;64628;50.104;14.614;2024-03-23T08:43:46;19;17;
75946;PMS5003;64628;50.104;14.614;2024-03-23T08:46:12;18;15;
75946;PMS5003;64628;50.104;14.614;2024-03-23T08:48:37;16;15;
75946;PMS5003;64628;50.104;14.614;2024-03-23T08:51:02;18;15;
75946;PMS5003;64628;50.104;14.614;2024-03-23T08:53:27;16;15;
75946;PMS5003;64628;50.104;14.614;2024-03-23T08:55:53;18;16;
75946;PMS5003;64628;50.104;14.614;2024-03-23T08:58:17;11;11;
75946;PMS5003;64628;50.104;14.614;2024-03-23T09:00:42;13;13;
75946;PMS5003;64628;50.104;14.614;2024-03-23T09:03:08;16;14;
75946;PMS5003;64628;50.104;14.614;2024-03-23T09:05:38;19;14;
75946;PMS5003;64628;50.104;14.614;2024-03-23T09:07:59;15;13;
75946;PMS5003;64628;50.104;14.614;2024-03-23T09:10:24;13;13;
75946;PMS5003;64628;50.104;14.614;2024-03-23T09:12:49;19;16;
75946;PMS5003;64628;50.104;14.614;2024-03-23T09:15:15;14;13;
75946;PMS5003;64628;50.104;14.614;2024-03-23T09:17:40;16;15;
75946;PMS5003;64628;50.104;14.614;2024-03-23T09:20:05;11;9;
75946;PMS5003;64628;50.104;14.614;2024-03-23T09:22:31;13;12;
75946;PMS5003;64628;50.104;14.614;2024-03-23T09:24:56;13;13;
75946;PMS5003;64628;50.104;14.614;2024-03-23T09:27:21;11;10;
75946;PMS5003;64628;50.104;14.614;2024-03-23T09:29:46;11;11;
75946;PMS5003;64628;50.104;14.614;2024-03-23T09:32:12;35;33;
75946;PMS5003;64628;50.104;14.614;2024-03-23T09:34:37;29;29;
75946;PMS5003;64628;50.104;14.614;2024-03-23T09:37:02;50;47;
75946;PMS5003;64628;50.104;14.614;2024-03-23T09:39:27;46;44;
75946;PMS5003;64628;50.104;14.614;2024-03-23T09:41:56;105;104;
75946;PMS5003;64628;50.104;14.614;2024-03-23T09:44:19;43;43;
75946;PMS5003;64628;50.104;14.614;2024-03-23T09:46:44;12;10;
75946;PMS5003;64628;50.104;14.614;2024-03-23T09:49:09;12;12;
75946;PMS5003;64628;50.104;14.614;2024-03-23T09:51:35;9;8;
75946;PMS5003;64628;50.104;14.614;2024-03-23T09:54:00;6;6;
75946;PMS5003;64628;50.104;14.614;2024-03-23T09:56:26;24;21;
75946;PMS5003;64628;50.104;14.614;2024-03-23T09:58:51;11;9;
75946;PMS5003;64628;50.104;14.614;2024-03-23T10:01:16;15;12;
75946;PMS5003;64628;50.104;14.614;2024-03-23T10:03:42;13;11;
75946;PMS5003;64628;50.104;14.614;2024-03-23T10:06:07;12;12;
75946;PMS5003;64628;50.104;14.614;2024-03-23T10:08:32;12;10;
75946;PMS5003;64628;50.104;14.614;2024-03-23T10:10:57;11;11;
75946;PMS5003;64628;50.104;14.614;2024-03-23T10:13:24;21;18;
75946;PMS5003;64628;50.104;14.614;2024-03-23T10:15:48;9;7;
75946;PMS5003;64628;50.104;14.614;2024-03-23T10:18:17;11;7;
75946;PMS5003;64628;50.104;14.614;2024-03-23T10:20:38;9;9;
75946;PMS5003;64628;50.104;14.614;2024-03-23T10:23:04;12;11;
75946;PMS5003;64628;50.104;14.614;2024-03-23T10:25:29;10;9;
75946;PMS5003;64628;50.104;14.614;2024-03-23T10:27:58;12;11;
75946;PMS5003;64628;50.104;14.614;2024-03-23T10:30:19;12;11;
75946;PMS5003;64628;50.104;14.614;2024-03-23T10:32:45;17;11;
75946;PMS5003;64628;50.104;14.614;2024-03-23T10:35:14;12;11;
75946;PMS5003;64628;50.104;14.614;2024-03-23T10:37:36;13;12;
75946;PMS5003;64628;50.104;14.614;2024-03-23T10:40:02;14;10;
75946;PMS5003;64628;50.104;14.614;2024-03-23T10:42:27;14;12;
75946;PMS5003;64628;50.104;14.614;2024-03-23T10:44:53;13;12;
75946;PMS5003;64628;50.104;14.614;2024-03-23T10:47:19;13;11;
75946;PMS5003;64628;50.104;14.614;2024-03-23T10:49:44;12;12;
75946;PMS5003;64628;50.104;14.614;2024-03-23T10:52:10;17;14;
75946;PMS5003;64628;50.104;14.614;2024-03-23T10:54:35;14;13;
75946;PMS5003;64628;50.104;14.614;2024-03-23T10:57:03;11;10;
75946;PMS5003;64628;50.104;14.614;2024-03-23T10:59:27;13;10;
75946;PMS5003;64628;50.104;14.614;2024-03-23T11:01:55;10;10;
75946;PMS5003;64628;50.104;14.614;2024-03-23T11:06:43;7;7;
75946;PMS5003;64628;50.104;14.614;2024-03-23T11:11:33;11;10;
75946;PMS5003;64628;50.104;14.614;2024-03-23T11:13:59;11;10;
75946;PMS5003;64628;50.104;14.614;2024-03-23T11:16:24;18;12;
75946;PMS5003;64628;50.104;14.614;2024-03-23T11:18:49;16;14;
75946;PMS5003;64628;50.104;14.614;2024-03-23T11:23:40;19;18;
75946;PMS5003;64628;50.104;14.614;2024-03-23T11:26:07;19;19;
75946;PMS5003;64628;50.104;14.614;2024-03-23T11:28:32;13;12;
75946;PMS5003;64628;50.104;14.614;2024-03-23T11:30:58;18;18;
75946;PMS5003;64628;50.104;14.614;2024-03-23T11:33:23;10;10;
75946;PMS5003;64628;50.104;14.614;2024-03-23T11:35:48;15;14;
75946;PMS5003;64628;50.104;14.614;2024-03-23T11:38:14;20;19;
75946;PMS5003;64628;50.104;14.614;2024-03-23T11:40:40;6;6;
75946;PMS5003;64628;50.104;14.614;2024-03-23T11:43:06;20;16;
75946;PMS5003;64628;50.104;14.614;2024-03-23T11:45:34;9;8;
75946;PMS5003;64628;50.104;14.614;2024-03-23T11:50:21;7;6;
75946;PMS5003;64628;50.104;14.614;2024-03-23T11:52:46;8;8;
75946;PMS5003;64628;50.104;14.614;2024-03-23T11:55:11;7;7;
75946;PMS5003;64628;50.104;14.614;2024-03-23T11:57:36;13;11;
75946;PMS5003;64628;50.104;14.614;2024-03-23T12:00:02;21;17;
75946;PMS5003;64628;50.104;14.614;2024-03-23T12:02:27;14;12;
75946;PMS5003;64628;50.104;14.614;2024-03-23T12:04:53;16;15;
75946;PMS5003;64628;50.104;14.614;2024-03-23T12:07:19;10;10;
75946;PMS5003;64628;50.104;14.614;2024-03-23T12:09:43;12;6;
75946;PMS5003;64628;50.104;14.614;2024-03-23T12:12:10;7;7;
75946;PMS5003;64628;50.104;14.614;2024-03-23T12:14:34;11;10;
75946;PMS5003;64628;50.104;14.614;2024-03-23T12:19:25;2;2;
75946;PMS5003;64628;50.104;14.614;2024-03-23T12:21:50;4;3;
75946;PMS5003;64628;50.104;14.614;2024-03-23T12:24:16;3;2;
75946;PMS5003;64628;50.104;14.614;2024-03-23T12:26:42;2;2;
75946;PMS5003;64628;50.104;14.614;2024-03-23T12:29:06;1;1;
75946;PMS5003;64628;50.104;14.614;2024-03-23T12:31:32;1;1;
75946;PMS5003;64628;50.104;14.614;2024-03-23T12:33:57;2;0;
75946;PMS5003;64628;50.104;14.614;2024-03-23T12:36:22;0;0;
75946;PMS5003;64628;50.104;14.614;2024-03-23T12:38:47;1;0;
75946;PMS5003;64628;50.104;14.614;2024-03-23T12:41:13;1;1;
75946;PMS5003;64628;50.104;14.614;2024-03-23T12:43:38;1;0;
75946;PMS5003;64628;50.104;14.614;2024-03-23T12:46:03;0;0;
75946;PMS5003;64628;50.104;14.614;2024-03-23T12:48:29;5;3;
75946;PMS5003;64628;50.104;14.614;2024-03-23T12:50:54;3;0;
75946;PMS5003;64628;50.104;14.614;2024-03-23T12:53:19;0;0;
75946;PMS5003;64628;50.104;14.614;2024-03-23T12:55:45;1;1;
75946;PMS5003;64628;50.104;14.614;2024-03-23T12:58:10;4;3;
75946;PMS5003;64628;50.104;14.614;2024-03-23T13:00:35;1;1;
75946;PMS5003;64628;50.104;14.614;2024-03-23T13:03:01;1;1;
75946;PMS5003;64628;50.104;14.614;2024-03-23T13:05:26;3;3;
75946;PMS5003;64628;50.104;14.614;2024-03-23T13:07:51;2;2;
75946;PMS5003;64628;50.104;14.614;2024-03-23T13:10:17;2;2;
75946;PMS5003;64628;50.104;14.614;2024-03-23T13:12:42;4;4;
75946;PMS5003;64628;50.104;14.614;2024-03-23T13:15:08;3;3;
75946;PMS5003;64628;50.104;14.614;2024-03-23T13:17:33;1;1;
75946;PMS5003;64628;50.104;14.614;2024-03-23T13:19:58;1;1;
75946;PMS5003;64628;50.104;14.614;2024-03-23T13:22:24;2;2;
75946;PMS5003;64628;50.104;14.614;2024-03-23T13:24:49;0;0;
75946;PMS5003;64628;50.104;14.614;2024-03-23T13:27:14;2;1;
75946;PMS5003;64628;50.104;14.614;2024-03-23T13:29:40;1;0;
75946;PMS5003;64628;50.104;14.614;2024-03-23T13:32:05;8;8;
75946;PMS5003;64628;50.104;14.614;2024-03-23T13:34:30;3;3;
75946;PMS5003;64628;50.104;14.614;2024-03-23T13:36:56;2;1;
75946;PMS5003;64628;50.104;14.614;2024-03-23T13:39:21;0;0;
75946;PMS5003;64628;50.104;14.614;2024-03-23T13:41:46;0;0;
75946;PMS5003;64628;50.104;14.614;2024-03-23T13:44:12;0;0;
75946;PMS5003;64628;50.104;14.614;2024-03-23T13:46:37;0;0;
75946;PMS5003;64628;50.104;14.614;2024-03-23T13:49:02;1;0;
75946;PMS5003;64628;50.104;14.614;2024-03-23T13:51:27;0;0;
75946;PMS5003;64628;50.104;14.614;2024-03-23T13:53:53;0;0;
75946;PMS5003;64628;50.104;14.614;2024-03-23T13:56:18;0;0;
75946;PMS5003;64628;50.104;14.614;2024-03-23T13:58:43;0;0;
75946;PMS5003;64628;50.104;14.614;2024-03-23T14:01:08;0;0;
75946;PMS5003;64628;50.104;14.614;2024-03-23T14:03:34;0;0;
75946;PMS5003;64628;50.104;14.614;2024-03-23T14:05:59;0;0;
75946;PMS5003;64628;50.104;14.614;2024-03-23T14:08:24;0;0;
75946;PMS5003;64628;50.104;14.614;2024-03-23T14:10:50;3;3;
75946;PMS5003;64628;50.104;14.614;2024-03-23T14:13:15;0;0;
75946;PMS5003;64628;50.104;14.614;2024-03-23T14:15:40;1;1;
75946;PMS5003;64628;50.104;14.614;2024-03-23T14:18:06;0;0;
75946;PMS5003;64628;50.104;14.614;2024-03-23T14:20:31;1;0;
75946;PMS5003;64628;50.104;14.614;2024-03-23T14:22:56;1;1;
75946;PMS5003;64628;50.104;14.614;2024-03-23T14:25:22;0;0;
75946;PMS5003;64628;50.104;14.614;2024-03-23T14:27:47;1;1;
75946;PMS5003;64628;50.104;14.614;2024-03-23T14:30:13;1;1;
75946;PMS5003;64628;50.104;14.614;2024-03-23T14:32:38;3;3;
75946;PMS5003;64628;50.104;14.614;2024-03-23T14:35:04;8;5;
75946;PMS5003;64628;50.104;14.614;2024-03-23T14:37:29;9;9;
75946;PMS5003;64628;50.104;14.614;2024-03-23T14:39:55;18;18;
75946;PMS5003;64628;50.104;14.614;2024-03-23T14:42:20;3;3;
75946;PMS5003;64628;50.104;14.614;2024-03-23T14:44:45;28;27;
75946;PMS5003;64628;50.104;14.614;2024-03-23T14:47:11;13;13;
75946;PMS5003;64628;50.104;14.614;2024-03-23T14:49:36;17;15;
75946;PMS5003;64628;50.104;14.614;2024-03-23T14:52:02;56;56;
75946;PMS5003;64628;50.104;14.614;2024-03-23T14:54:27;21;21;
75946;PMS5003;64628;50.104;14.614;2024-03-23T14:56:52;14;13;
75946;PMS5003;64628;50.104;14.614;2024-03-23T14:59:17;35;35;
75946;PMS5003;64628;50.104;14.614;2024-03-23T15:01:43;4;1;
75946;PMS5003;64628;50.104;14.614;2024-03-23T15:04:08;2;0;
75946;PMS5003;64628;50.104;14.614;2024-03-23T15:06:34;0;0;
75946;PMS5003;64628;50.104;14.614;2024-03-23T15:08:59;1;1;
75946;PMS5003;64628;50.104;14.614;2024-03-23T15:11:24;3;2;
75946;PMS5003;64628;50.104;14.614;2024-03-23T15:13:50;12;9;
75946;PMS5003;64628;50.104;14.614;2024-03-23T15:16:16;9;7;
75946;PMS5003;64628;50.104;14.614;2024-03-23T15:18:41;7;6;
75946;PMS5003;64628;50.104;14.614;2024-03-23T15:21:06;7;6;
75946;PMS5003;64628;50.104;14.614;2024-03-23T15:23:31;4;3;
75946;PMS5003;64628;50.104;14.614;2024-03-23T15:25:57;4;3;
75946;PMS5003;64628;50.104;14.614;2024-03-23T15:28:22;1;1;
75946;PMS5003;64628;50.104;14.614;2024-03-23T15:30:47;13;7;
75946;PMS5003;64628;50.104;14.614;2024-03-23T15:33:13;4;2;
75946;PMS5003;64628;50.104;14.614;2024-03-23T15:35:38;6;6;
75946;PMS5003;64628;50.104;14.614;2024-03-23T15:38:04;7;7;
75946;PMS5003;64628;50.104;14.614;2024-03-23T15:40:29;10;8;
75946;PMS5003;64628;50.104;14.614;2024-03-23T15:42:55;19;19;
75946;PMS5003;64628;50.104;14.614;2024-03-23T15:45:20;25;25;
75946;PMS5003;64628;50.104;14.614;2024-03-23T15:47:46;23;20;
75946;PMS5003;64628;50.104;14.614;2024-03-23T15:50:11;23;20;
75946;PMS5003;64628;50.104;14.614;2024-03-23T15:52:36;15;15;
75946;PMS5003;64628;50.104;14.614;2024-03-23T15:55:02;14;14;
75946;PMS5003;64628;50.104;14.614;2024-03-23T15:57:27;14;13;
75946;PMS5003;64628;50.104;14.614;2024-03-23T15:59:52;45;42;
75946;PMS5003;64628;50.104;14.614;2024-03-23T16:02:18;37;35;
75946;PMS5003;64628;50.104;14.614;2024-03-23T16:04:43;18;15;
75946;PMS5003;64628;50.104;14.614;2024-03-23T16:07:09;18;18;
75946;PMS5003;64628;50.104;14.614;2024-03-23T16:09:34;24;23;
75946;PMS5003;64628;50.104;14.614;2024-03-23T16:12:00;59;58;
75946;PMS5003;64628;50.104;14.614;2024-03-23T16:14:25;86;85;
75946;PMS5003;64628;50.104;14.614;2024-03-23T16:16:51;12;10;
75946;PMS5003;64628;50.104;14.614;2024-03-23T16:19:16;7;7;
75946;PMS5003;64628;50.104;14.614;2024-03-23T16:21:42;6;6;
75946;PMS5003;64628;50.104;14.614;2024-03-23T16:24:07;6;6;
75946;PMS5003;64628;50.104;14.614;2024-03-23T16:26:33;7;7;
75946;PMS5003;64628;50.104;14.614;2024-03-23T16:28:58;9;8;
75946;PMS5003;64628;50.104;14.614;2024-03-23T16:31:24;4;4;
75946;PMS5003;64628;50.104;14.614;2024-03-23T16:33:49;7;6;
75946;PMS5003;64628;50.104;14.614;2024-03-23T16:36:15;3;3;
75946;PMS5003;64628;50.104;14.614;2024-03-23T16:38:41;9;6;
75946;PMS5003;64628;50.104;14.614;2024-03-23T16:41:06;8;6;
75946;PMS5003;64628;50.104;14.614;2024-03-23T16:43:31;9;8;
75946;PMS5003;64628;50.104;14.614;2024-03-23T16:45:57;12;9;
75946;PMS5003;64628;50.104;14.614;2024-03-23T16:48:22;13;8;
75946;PMS5003;64628;50.104;14.614;2024-03-23T16:50:47;20;18;
75946;PMS5003;64628;50.104;14.614;2024-03-23T16:53:13;11;11;
75946;PMS5003;64628;50.104;14.614;2024-03-23T16:55:38;12;12;
75946;PMS5003;64628;50.104;14.614;2024-03-23T16:58:04;14;11;
75946;PMS5003;64628;50.104;14.614;2024-03-23T17:00:29;17;13;
75946;PMS5003;64628;50.104;14.614;2024-03-23T17:02:54;24;23;